Time;durP1;ratioP1;P1;durP2;ratioP2;P2;SDS_P1;SDS_P2;PMS_P1;PMS_P2;Temp;Humidity;BMP_temperature;BMP_pressure;BME280_temperature;BME280_humidity;BME280_pressure;Samples;Min_cycle;Max_cycle;Signal;HPM_P1;HPM_P2
2022/08/17 00:00:21;;;;;;;6.13;5.53;;;;;;;19.86;100.00;100078.72;6226304;28;20177;-91
2022/08/17 00:03:45;;;;;;;6.15;5.20;;;;;;;19.86;100.00;100067.41;6234878;28;20499;-91
2022/08/17 00:06:48;;;;;;;8.32;5.75;;;;;;;19.85;100.00;100071.03;6248582;28;20518;-91
2022/08/17 00:09:50;;;;;;;6.03;5.32;;;;;;;19.85;100.00;100077.09;6235472;28;20041;-91
2022/08/17 00:12:52;;;;;;;6.10;5.32;;;;;;;19.83;100.00;100073.06;6219503;28;20041;-91
2022/08/17 00:16:01;;;;;;;7.50;5.95;;;;;;;19.82;100.00;100077.47;6225484;28;20115;-90
2022/08/17 00:19:06;;;;;;;7.35;5.65;;;;;;;19.76;100.00;100078.25;6263205;28;20052;-91
2022/08/17 00:22:09;;;;;;;6.25;5.63;;;;;;;19.71;100.00;100073.56;6225001;28;20050;-91
2022/08/17 00:25:31;;;;;;;6.05;5.45;;;;;;;19.64;100.00;100069.25;6224553;28;20369;-90
2022/08/17 00:28:33;;;;;;;6.68;6.07;;;;;;;19.56;100.00;100075.47;6226232;28;20053;-91
2022/08/17 00:31:37;;;;;;;7.35;6.20;;;;;;;19.49;100.00;100074.59;6241427;28;20112;-91
2022/08/17 00:34:39;;;;;;;7.05;6.35;;;;;;;19.41;100.00;100075.56;6263488;28;20400;-91
2022/08/17 00:37:41;;;;;;;7.00;6.30;;;;;;;19.39;100.00;100074.13;6229318;28;20050;-91
2022/08/17 00:40:55;;;;;;;5.93;5.32;;;;;;;19.35;100.00;100071.88;6229004;28;20037;-91
2022/08/17 00:44:03;;;;;;;6.43;5.82;;;;;;;19.30;100.00;100074.25;6235751;28;20120;-91
2022/08/17 00:47:05;;;;;;;6.75;6.05;;;;;;;19.26;100.00;100074.81;6260644;28;20049;-90
2022/08/17 00:50:12;;;;;;;6.75;6.03;;;;;;;19.26;100.00;100075.63;6230428;28;20052;-91
2022/08/17 00:53:15;;;;;;;6.78;6.07;;;;;;;19.24;100.00;100066.31;6241655;28;20076;-91
2022/08/17 00:56:25;;;;;;;7.25;5.80;;;;;;;19.17;100.00;100058.38;6227989;28;20565;-91
2022/08/17 00:59:33;;;;;;;7.07;6.40;;;;;;;19.14;100.00;100062.19;6267768;28;20040;-91
2022/08/17 01:02:39;;;;;;;7.28;6.25;;;;;;;19.10;100.00;100060.94;6242474;28;20125;-91
2022/08/17 01:05:45;;;;;;;7.13;5.90;;;;;;;19.10;100.00;100058.31;6232044;28;20404;-91
2022/08/17 01:08:48;;;;;;;7.90;6.30;;;;;;;19.10;100.00;100053.06;6237760;28;20148;-91
2022/08/17 01:11:58;;;;;;;8.35;6.18;;;;;;;19.09;100.00;100055.91;6233868;28;20090;-91
2022/08/17 01:15:00;;;;;;;6.78;5.50;;;;;;;19.06;100.00;100069.41;6271533;28;20122;-91
2022/08/17 01:18:04;;;;;;;6.38;5.32;;;;;;;19.06;100.00;100072.03;6222143;28;20049;-92
2022/08/17 01:21:12;;;;;;;7.03;6.28;;;;;;;19.04;100.00;100071.41;6234713;28;20415;-91
2022/08/17 01:24:15;;;;;;;8.70;6.45;;;;;;;19.00;100.00;100068.31;6231993;28;20042;-90
2022/08/17 01:27:19;;;;;;;7.30;6.60;;;;;;;18.96;100.00;100074.97;6228387;28;20038;-91
2022/08/17 01:30:22;;;;;;;6.97;6.28;;;;;;;18.97;100.00;100078.38;6271949;28;20049;-91
2022/08/17 01:33:44;;;;;;;7.85;5.90;;;;;;;18.91;100.00;100087.81;6232819;28;20044;-91
2022/08/17 01:36:47;;;;;;;7.22;6.20;;;;;;;18.81;100.00;100085.50;6238939;28;20663;-91
2022/08/17 01:39:54;;;;;;;7.47;6.28;;;;;;;18.69;100.00;100098.25;6271371;28;20060;-91
2022/08/17 01:43:06;;;;;;;7.60;6.80;;;;;;;18.64;100.00;100091.94;6230245;28;20042;-91
2022/08/17 01:46:08;;;;;;;7.47;6.78;;;;;;;18.59;100.00;100084.63;6251573;28;20037;-91
2022/08/17 01:49:11;;;;;;;9.65;7.07;;;;;;;18.57;100.00;100083.97;6213778;28;20070;-91
2022/08/17 01:52:14;;;;;;;7.90;6.47;;;;;;;18.51;100.00;100087.34;6270836;28;20499;-91
2022/08/17 01:55:21;;;;;;;9.40;6.80;;;;;;;18.48;100.00;100096.41;6265690;28;20096;-91
2022/08/17 01:58:28;;;;;;;7.05;6.35;;;;;;;18.48;100.00;100096.41;6243177;28;20076;-91
2022/08/17 02:01:32;;;;;;;7.18;6.55;;;;;;;18.48;100.00;100093.78;6223891;28;20042;-91
2022/08/17 02:04:34;;;;;;;6.70;6.10;;;;;;;18.47;100.00;100094.75;6233324;28;20135;-91
2022/08/17 02:07:36;;;;;;;8.50;6.18;;;;;;;18.45;100.00;100085.44;6236468;28;20037;-91
2022/08/17 02:10:58;;;;;;;7.43;6.70;;;;;;;18.43;100.00;100083.03;6262129;28;20168;-91
2022/08/17 02:14:01;;;;;;;8.93;6.75;;;;;;;18.42;100.00;100072.72;6242452;28;20120;-91
2022/08/17 02:17:04;;;;;;;6.97;6.28;;;;;;;18.46;100.00;100072.19;6240824;28;20037;-91
2022/08/17 02:20:08;;;;;;;8.77;6.82;;;;;;;18.46;100.00;100068.75;6237330;28;20098;-91
2022/08/17 02:23:11;;;;;;;6.45;5.85;;;;;;;18.42;100.00;100078.78;6244929;28;20044;-91
2022/08/17 02:26:13;;;;;;;8.02;6.45;;;;;;;18.38;100.00;100074.88;6260549;28;20761;-90
2022/08/17 02:29:27;;;;;;;8.77;6.55;;;;;;;18.34;100.00;100072.84;6248083;28;20408;-91
2022/08/17 02:32:29;;;;;;;8.38;7.25;;;;;;;18.29;100.00;100081.25;6231515;28;20054;-91
2022/08/17 02:35:31;;;;;;;7.35;6.65;;;;;;;18.17;100.00;100073.03;6235909;28;20040;-91
2022/08/17 02:38:32;;;;;;;8.10;7.30;;;;;;;18.15;100.00;100075.00;6230172;28;20078;-91
2022/08/17 02:41:36;;;;;;;8.55;6.97;;;;;;;18.07;100.00;100073.28;6223002;28;20495;-91
2022/08/17 02:44:38;;;;;;;9.10;7.15;;;;;;;18.02;100.00;100074.84;6217449;28;20049;-91
2022/08/17 02:47:42;;;;;;;7.97;7.13;;;;;;;17.97;100.00;100075.38;6217651;28;20120;-91
2022/08/17 02:50:45;;;;;;;10.40;7.43;;;;;;;17.94;100.00;100080.16;6252704;28;20044;-91
2022/08/17 02:53:46;;;;;;;7.53;6.57;;;;;;;17.90;100.00;100077.09;6226422;28;20037;-91
2022/08/17 02:56:48;;;;;;;8.23;7.38;;;;;;;17.86;100.00;100073.19;6229812;28;20049;-90
2022/08/17 02:59:50;;;;;;;7.53;6.45;;;;;;;17.81;100.00;100079.00;6231767;28;20052;-91
2022/08/17 03:02:52;;;;;;;8.52;6.80;;;;;;;17.76;100.00;100075.22;6222413;28;20373;-91
2022/08/17 03:05:54;;;;;;;7.90;6.82;;;;;;;17.73;100.00;100080.81;6221679;28;20041;-91
2022/08/17 03:08:58;;;;;;;8.30;7.50;;;;;;;17.70;100.00;100068.09;6225163;28;20543;-91
2022/08/17 03:12:16;;;;;;;7.63;6.82;;;;;;;17.66;100.00;100078.09;6219537;28;20033;-90
2022/08/17 03:15:23;;;;;;;8.93;7.38;;;;;;;17.67;100.00;100078.94;6233423;28;20049;-90
2022/08/17 03:18:26;;;;;;;10.52;7.63;;;;;;;17.66;100.00;100080.72;6254542;28;20576;-91
2022/08/17 03:21:28;;;;;;;9.20;7.05;;;;;;;17.64;100.00;100077.50;6230440;28;20049;-91
2022/08/17 03:24:30;;;;;;;9.75;7.55;;;;;;;17.60;100.00;100082.25;6244606;28;20451;-91
2022/08/17 03:27:32;;;;;;;8.25;7.38;;;;;;;17.58;100.00;100073.75;6264972;28;20053;-90
2022/08/17 03:30:35;;;;;;;8.10;7.30;;;;;;;17.59;100.00;100077.22;6220907;28;20073;-91
2022/08/17 03:33:37;;;;;;;9.75;7.38;;;;;;;17.58;100.00;100075.56;6233822;28;20033;-91
2022/08/17 03:36:39;;;;;;;9.15;7.78;;;;;;;17.56;100.00;100072.31;6231541;28;20250;-90
2022/08/17 03:39:41;;;;;;;8.55;7.45;;;;;;;17.55;100.00;100071.50;6236061;28;20046;-91
2022/08/17 03:42:43;;;;;;;10.30;7.15;;;;;;;17.55;100.00;100068.09;6226221;28;20110;-91
2022/08/17 03:59:21;;;;;;;;;;;;;;;17.51;100.00;100062.38;6201979;28;21229;-91
2022/08/17 04:02:25;;;;;;;9.52;6.55;;;;;;;17.52;100.00;100064.00;6227005;28;20039;-91
2022/08/17 04:05:29;;;;;;;8.13;7.15;;;;;;;17.52;100.00;100064.00;6265258;28;20678;-91
2022/08/17 04:08:35;;;;;;;8.02;6.68;;;;;;;17.51;100.00;100072.03;6234803;28;20474;-91
2022/08/17 04:11:37;;;;;;;9.82;7.38;;;;;;;17.50;100.00;100065.19;6239043;28;20052;-90
2022/08/17 04:14:39;;;;;;;9.65;6.97;;;;;;;17.52;100.00;100063.22;6280904;28;20045;-90
2022/08/17 04:17:54;;;;;;;10.55;6.75;;;;;;;17.51;100.00;100066.78;6238866;28;20046;-90
2022/08/17 04:20:56;;;;;;;8.82;6.80;;;;;;;17.51;100.00;100072.03;6240996;28;20046;-90
2022/08/17 04:23:59;;;;;;;8.48;7.43;;;;;;;17.51;100.00;100070.22;6246564;28;20051;-91
2022/08/17 04:27:01;;;;;;;10.75;7.22;;;;;;;17.52;100.00;100071.06;6239277;28;20049;-91
2022/08/17 04:30:06;;;;;;;10.25;7.22;;;;;;;17.53;100.00;100065.63;6246234;28;20474;-91
2022/08/17 04:33:12;;;;;;;7.45;6.63;;;;;;;17.56;100.00;100075.72;6225661;28;20042;-91
2022/08/17 04:36:15;;;;;;;9.98;7.32;;;;;;;17.60;100.00;100077.03;6245436;28;20037;-91
2022/08/17 04:39:16;;;;;;;7.82;6.57;;;;;;;17.62;100.00;100080.28;6225078;28;20046;-91
2022/08/17 04:42:18;;;;;;;10.25;7.68;;;;;;;17.60;100.00;100079.63;6226863;28;20042;-91
2022/08/17 04:45:20;;;;;;;8.63;6.75;;;;;;;17.63;100.00;100081.88;6235911;28;20038;-91
2022/08/17 04:48:26;;;;;;;10.02;7.50;;;;;;;17.62;100.00;100082.88;6226106;28;20096;-90
2022/08/17 04:51:43;;;;;;;8.65;6.95;;;;;;;17.65;100.00;100094.81;6232614;28;20091;-91
2022/08/17 04:54:56;;;;;;;10.00;7.47;;;;;;;17.67;100.00;100094.66;6228670;28;20029;-91
2022/08/17 04:57:57;;;;;;;10.32;7.18;;;;;;;17.69;100.00;100093.47;6226045;28;20605;-90
2022/08/17 05:01:00;;;;;;;10.00;7.13;;;;;;;17.77;100.00;100103.84;6227841;28;20037;-90
2022/08/17 05:04:06;;;;;;;8.65;7.00;;;;;;;17.84;100.00;100104.81;6234242;28;20404;-91
2022/08/17 05:07:27;;;;;;;7.63;6.88;;;;;;;17.93;100.00;100102.91;6220211;28;20475;-91
2022/08/17 05:10:35;;;;;;;8.30;6.63;;;;;;;18.03;100.00;100107.88;6226529;28;20120;-91
2022/08/17 05:13:48;;;;;;;7.65;6.80;;;;;;;18.13;100.00;100118.91;6257721;28;20073;-91
2022/08/17 05:16:51;;;;;;;7.47;6.68;;;;;;;18.20;100.00;100119.81;6236765;28;20450;-91
2022/08/17 05:19:53;;;;;;;7.32;6.53;;;;;;;18.33;100.00;100123.59;6225822;28;20041;-91
2022/08/17 05:22:59;;;;;;;7.53;6.47;;;;;;;18.43;100.00;100126.75;6243726;28;20041;-91
2022/08/17 05:26:01;;;;;;;9.32;6.85;;;;;;;18.58;100.00;100132.78;6228301;28;20396;-91
2022/08/17 05:29:02;;;;;;;11.07;7.10;;;;;;;18.69;100.00;100131.53;6227553;28;20037;-91
2022/08/17 05:32:12;;;;;;;8.30;6.93;;;;;;;18.83;100.00;100130.72;6248774;28;20573;-91
2022/08/17 05:35:36;;;;;;;7.82;6.57;;;;;;;18.99;100.00;100126.22;6241909;28;20041;-91
2022/08/17 05:38:38;;;;;;;9.38;6.95;;;;;;;19.07;100.00;100133.97;6221707;28;20049;-92
2022/08/17 05:41:40;;;;;;;8.45;7.22;;;;;;;19.13;100.00;100128.00;6225850;28;20048;-91
2022/08/17 05:44:42;;;;;;;7.15;6.32;;;;;;;19.23;100.00;100125.88;6220369;28;20041;-91
2022/08/17 05:47:45;;;;;;;9.02;6.70;;;;;;;19.32;100.00;100129.16;6231364;28;20041;-91
2022/08/17 05:50:51;;;;;;;10.35;6.95;;;;;;;19.43;100.00;100126.06;6222754;28;20388;-91
2022/08/17 05:54:21;;;;;;;8.80;6.80;;;;;;;19.55;100.00;100127.16;6274909;28;20041;-91
2022/08/17 05:57:50;;;;;;;7.93;6.72;;;;;;;19.69;100.00;100127.28;6237381;28;20083;-91
2022/08/17 06:01:07;;;;;;;8.38;6.43;;;;;;;19.81;100.00;100133.66;6249778;28;20041;-91
2022/08/17 06:04:44;;;;;;;9.90;7.20;;;;;;;19.94;100.00;100130.28;6236858;28;20045;-91
2022/08/17 06:08:01;;;;;;;7.32;6.50;;;;;;;20.10;100.00;100131.78;6231691;28;20606;-92
2022/08/17 06:11:23;;;;;;;7.50;6.70;;;;;;;20.27;98.63;100134.94;6232810;28;20095;-91
2022/08/17 06:14:53;;;;;;;8.60;6.60;;;;;;;20.40;97.25;100135.81;6226708;28;20038;-92
2022/08/17 06:18:02;;;;;;;8.32;6.97;;;;;;;20.55;96.53;100127.03;6279620;28;20042;-92
2022/08/17 06:21:10;;;;;;;7.50;6.38;;;;;;;20.70;95.78;100124.25;6247180;28;20041;-92
2022/08/17 06:24:34;;;;;;;7.07;6.15;;;;;;;20.90;95.46;100127.75;6221883;28;20953;-91
2022/08/17 06:27:51;;;;;;;8.95;6.80;;;;;;;21.02;92.53;100134.03;6258305;28;20080;-91
2022/08/17 06:31:11;;;;;;;8.52;5.97;;;;;;;21.14;93.15;100129.00;6238786;28;20056;-91
2022/08/17 06:34:13;;;;;;;8.48;6.30;;;;;;;21.25;93.81;100131.03;6234149;28;20041;-91
2022/08/17 06:37:54;;;;;;;6.72;5.95;;;;;;;21.35;91.40;100133.28;6239188;28;20433;-91
2022/08/17 06:41:05;;;;;;;8.18;6.50;;;;;;;21.49;91.35;100120.97;6218922;28;20191;-92
2022/08/17 06:44:19;;;;;;;7.63;5.80;;;;;;;21.62;91.29;100128.84;6260145;28;20041;-91
2022/08/17 06:47:51;;;;;;;8.00;6.47;;;;;;;21.78;89.53;100125.00;6230140;28;20073;-92
2022/08/17 06:50:59;;;;;;;7.68;5.88;;;;;;;21.89;89.17;100126.22;6230042;28;20048;-92
2022/08/17 06:54:05;;;;;;;7.60;5.72;;;;;;;21.94;87.30;100124.56;6225636;28;20065;-92
2022/08/17 06:57:21;;;;;;;5.95;5.35;;;;;;;21.98;85.95;100130.22;6221467;28;20399;-92
2022/08/17 07:00:28;;;;;;;7.85;5.88;;;;;;;21.96;86.69;100126.19;6253543;28;20049;-92
2022/08/17 07:03:38;;;;;;;8.70;5.95;;;;;;;21.91;86.79;100129.44;6230915;28;20034;-92
2022/08/17 07:06:45;;;;;;;6.10;5.60;;;;;;;21.84;87.49;100124.19;6233093;28;20045;-92
2022/08/17 07:09:49;;;;;;;6.45;5.72;;;;;;;21.75;89.23;100128.03;6218988;28;20582;-91
2022/08/17 07:12:59;;;;;;;7.05;6.18;;;;;;;21.65;91.65;100127.63;6239344;28;20542;-92
2022/08/17 07:16:18;;;;;;;7.18;5.97;;;;;;;21.54;94.39;100121.16;6246786;28;20037;-91
2022/08/17 07:19:24;;;;;;;6.40;5.57;;;;;;;21.47;95.27;100125.63;6243826;28;20042;-91
2022/08/17 07:22:46;;;;;;;7.40;6.32;;;;;;;21.45;95.17;100132.91;6243207;28;20041;-92
2022/08/17 07:26:08;;;;;;;10.25;6.13;;;;;;;21.47;94.91;100136.16;6232152;28;20085;-92
2022/08/17 07:29:16;;;;;;;9.35;6.10;;;;;;;21.52;93.80;100136.38;6231233;28;20045;-92
2022/08/17 07:32:30;;;;;;;7.07;5.63;;;;;;;21.64;92.62;100136.53;6238614;28;20829;-92
2022/08/17 07:35:43;;;;;;;7.70;5.85;;;;;;;21.73;91.18;100136.13;6243815;28;20061;-92
2022/08/17 07:38:56;;;;;;;7.60;6.03;;;;;;;21.87;89.56;100141.41;6228118;28;20155;-91
2022/08/17 07:42:03;;;;;;;10.55;6.28;;;;;;;22.00;88.96;100141.38;6223737;28;20762;-91
2022/08/17 07:48:17;;;;;;;7.18;5.32;;;;;;;22.13;88.31;100146.63;6240141;28;20507;-92
2022/08/17 07:48:35;;;;;;;6.40;5.35;;;;;;;22.29;86.30;100141.97;6227240;28;20594;-91
2022/08/17 07:51:44;;;;;;;7.45;5.40;;;;;;;22.53;84.53;100146.56;6236644;28;20034;-91
2022/08/17 07:54:47;;;;;;;9.15;5.10;;;;;;;22.85;83.39;100154.50;6239097;28;20052;-92
2022/08/17 07:57:56;;;;;;;5.65;5.15;;;;;;;23.25;80.22;100150.84;6239039;28;20045;-93
2022/08/17 08:01:17;;;;;;;5.82;5.20;;;;;;;23.66;79.36;100147.69;6247385;28;20746;-92
2022/08/17 08:04:43;;;;;;;6.13;5.43;;;;;;;24.03;75.08;100143.31;6236415;28;20049;-92
2022/08/17 08:08:17;;;;;;;5.53;4.97;;;;;;;24.42;74.23;100141.28;6239354;28;20041;-92
2022/08/17 08:11:34;;;;;;;5.80;5.28;;;;;;;24.75;76.00;100150.66;6246372;28;20068;-92
2022/08/17 08:14:38;;;;;;;6.55;5.22;;;;;;;24.98;74.20;100152.59;6258161;28;20051;-92
2022/08/17 08:17:56;;;;;;;6.18;5.15;;;;;;;25.24;70.29;100151.44;6240677;28;20528;-93
2022/08/17 08:21:04;;;;;;;5.38;4.80;;;;;;;25.50;72.33;100152.84;6231289;28;20561;-93
2022/08/17 08:24:29;;;;;;;6.70;4.82;;;;;;;25.79;71.10;100153.00;6217538;28;20068;-92
2022/08/17 08:27:53;;;;;;;4.97;4.57;;;;;;;26.14;67.28;100160.97;6267654;28;20054;-93
2022/08/17 08:31:23;;;;;;;7.72;5.20;;;;;;;26.55;67.25;100166.31;6224848;28;20045;-93
2022/08/17 08:34:44;;;;;;;8.03;4.60;;;;;;;26.93;63.83;100172.88;6224952;28;20038;-93
2022/08/17 08:38:41;;;;;;;5.45;4.95;;;;;;;27.19;60.80;100171.50;6259469;28;20123;-93
2022/08/17 08:42:06;;;;;;;7.68;4.80;;;;;;;27.27;62.69;100163.94;6252912;28;20414;-92
2022/08/17 08:45:22;;;;;;;5.03;4.53;;;;;;;27.36;61.41;100166.22;6254135;28;20773;-93
2022/08/17 08:48:55;;;;;;;6.35;4.95;;;;;;;27.43;62.00;100164.22;6243019;28;20212;-93
2022/08/17 08:52:08;;;;;;;6.77;4.73;;;;;;;27.44;61.77;100163.16;6249888;28;20128;-93
2022/08/17 08:55:44;;;;;;;5.60;4.93;;;;;;;27.45;60.27;100164.75;6280045;28;20053;-93
2022/08/17 08:59:23;;;;;;;5.43;4.93;;;;;;;27.52;61.63;100168.06;6238433;28;20415;-92
2022/08/17 09:02:37;;;;;;;;;;;;;;;27.52;61.24;100170.72;6246669;28;20044;-93
2022/08/17 09:05:55;;;;;;;4.93;4.43;;;;;;;27.51;62.87;100174.44;6239324;28;19931;-92
2022/08/17 09:09:55;;;;;;;4.93;4.53;;;;;;;27.55;61.47;100175.53;6262058;28;20098;-93
2022/08/17 09:13:37;;;;;;;8.77;4.80;;;;;;;27.65;59.71;100173.06;6161976;28;20059;-93
2022/08/17 09:16:54;;;;;;;6.65;4.40;;;;;;;27.88;58.61;100181.94;6146110;28;20043;-93
2022/08/17 09:20:24;;;;;;;9.77;4.50;;;;;;;27.95;57.68;100177.25;6161835;28;20178;-93
2022/08/17 09:23:58;;;;;;;5.03;4.40;;;;;;;27.99;57.83;100173.03;6131155;28;20046;-93
2022/08/17 09:27:51;;;;;;;5.40;4.20;;;;;;;28.01;55.82;100162.94;6163602;28;20054;-94
2022/08/17 09:31:04;;;;;;;4.88;4.28;;;;;;;27.96;57.08;100168.22;6090466;29;20048;-94
2022/08/17 09:34:21;;;;;;;5.60;4.28;;;;;;;27.98;57.26;100174.09;6090649;29;20043;-94
2022/08/17 09:37:38;;;;;;;4.30;3.90;;;;;;;28.08;57.51;100163.59;6090666;29;20136;-94
2022/08/17 09:41:10;;;;;;;6.72;4.82;;;;;;;28.18;54.75;100165.56;6089650;29;20617;-94
2022/08/17 09:45:03;;;;;;;5.07;4.05;;;;;;;28.27;53.26;100168.59;6091380;29;20052;-94
2022/08/17 09:48:26;;;;;;;4.20;3.80;;;;;;;28.48;53.29;100165.16;6042817;29;20079;-94
2022/08/17 09:51:35;;;;;;;6.25;4.28;;;;;;;28.73;51.87;100156.66;6038193;29;20053;-94
2022/08/17 09:54:41;;;;;;;5.97;3.42;;;;;;;29.03;52.07;100162.53;6008197;29;20053;-95
2022/08/17 09:57:50;;;;;;;6.80;4.28;;;;;;;29.36;48.74;100154.31;6044349;29;20053;-93
2022/08/17 10:01:21;;;;;;;5.30;3.72;;;;;;;29.77;47.79;100157.31;6041717;29;20092;-95
2022/08/17 10:05:05;;;;;;;5.57;4.15;;;;;;;30.14;47.03;100153.78;6043226;29;20049;-94
2022/08/17 10:08:16;;;;;;;4.97;3.53;;;;;;;30.32;46.11;100155.22;6060088;29;20116;-96
2022/08/17 10:15:21;;;;;;;4.50;4.10;;;;;;;29.86;47.13;100154.16;6052006;29;20057;-95
2022/08/17 10:19:04;;;;;;;4.47;4.07;;;;;;;29.52;47.30;100149.13;6052882;29;20133;-95
2022/08/17 10:26:20;;;;;;;9.05;4.13;;;;;;;29.19;48.58;100135.81;6160947;28;20077;-94
2022/08/17 10:29:46;;;;;;;5.05;4.47;;;;;;;29.01;49.47;100130.00;6161657;28;20513;-95
2022/08/17 10:33:00;;;;;;;4.93;4.25;;;;;;;29.10;49.87;100129.31;6158521;28;20055;-95
2022/08/17 10:36:16;;;;;;;4.85;4.13;;;;;;;29.23;49.92;100132.63;6141024;28;20038;-96
2022/08/17 10:39:57;;;;;;;4.97;3.90;;;;;;;29.25;49.76;100133.97;6159272;28;20058;-96
2022/08/17 10:43:01;;;;;;;5.88;4.40;;;;;;;29.32;49.82;100137.25;6110335;29;20613;-95
2022/08/17 10:46:16;;;;;;;6.03;4.15;;;;;;;29.53;49.97;100134.72;6112097;29;20068;-94
2022/08/17 10:49:36;;;;;;;5.00;3.72;;;;;;;29.83;49.20;100131.44;6118115;29;20044;-93
2022/08/17 10:52:47;;;;;;;5.38;3.63;;;;;;;30.22;44.67;100133.78;6116844;29;20091;-94
2022/08/17 10:56:18;;;;;;;4.93;3.42;;;;;;;30.56;47.46;100136.88;6097510;29;20563;-94
2022/08/17 10:59:35;;;;;;;4.15;3.70;;;;;;;30.78;45.51;100135.81;6152688;28;20051;-95
2022/08/17 11:02:54;;;;;;;5.60;3.55;;;;;;;30.88;44.62;100122.50;6155869;28;20046;-94
2022/08/17 11:06:08;;;;;;;4.43;3.30;;;;;;;30.90;45.03;100125.72;6150764;28;20062;-95
2022/08/17 11:09:35;;;;;;;5.20;3.75;;;;;;;30.87;45.54;100121.69;6164887;28;20051;-94
2022/08/17 11:13:02;;;;;;;4.15;3.25;;;;;;;30.86;45.74;100125.44;6189095;28;20094;-94
2022/08/17 11:16:37;;;;;;;5.22;3.33;;;;;;;30.72;45.31;100129.66;6169097;28;20500;-94
2022/08/17 11:19:53;;;;;;;3.90;3.42;;;;;;;30.62;45.26;100113.63;6194361;28;20098;-94
2022/08/17 11:23:01;;;;;;;3.85;3.38;;;;;;;30.58;44.45;100116.00;6227805;28;20593;-94
2022/08/17 11:26:28;;;;;;;4.68;3.65;;;;;;;30.57;44.90;100118.94;6224228;28;20050;-94
2022/08/17 11:30:03;;;;;;;4.15;3.58;;;;;;;30.62;43.96;100113.63;6227427;28;20041;-95
2022/08/17 11:33:27;;;;;;;6.80;3.33;;;;;;;30.68;44.31;100104.53;6154938;28;20660;-94
2022/08/17 11:36:52;;;;;;;4.43;3.50;;;;;;;30.71;45.84;100114.72;6143623;28;20486;-94
2022/08/17 11:40:15;;;;;;;4.03;3.53;;;;;;;30.72;46.96;100108.28;6158937;28;20087;-93
2022/08/17 11:43:41;;;;;;;4.10;3.42;;;;;;;30.75;45.51;100107.75;6151577;28;20534;-94
2022/08/17 11:54:41;;;;;;;4.05;3.22;;;;;;;30.77;46.25;100108.28;6125223;29;20390;-94
2022/08/17 11:57:44;;;;;;;4.38;3.08;;;;;;;30.65;45.16;100105.06;6132887;29;20052;-94
2022/08/17 12:00:51;;;;;;;4.97;3.20;;;;;;;30.62;46.07;100110.94;6136425;29;20063;-95
2022/08/17 12:04:18;;;;;;;5.88;3.60;;;;;;;30.75;45.98;100107.75;6120180;29;20051;-95
2022/08/17 12:07:22;;;;;;;4.15;3.17;;;;;;;30.86;44.63;100108.63;6131038;29;20866;-93
2022/08/17 12:10:30;;;;;;;5.80;3.40;;;;;;;31.07;44.58;100109.41;6178572;28;20117;-95
2022/08/17 12:13:47;;;;;;;4.10;3.42;;;;;;;31.29;43.75;100106.47;6180744;28;20054;-94
2022/08/17 12:17:05;;;;;;;3.97;3.60;;;;;;;31.50;43.39;100105.41;6184801;28;20050;-94
2022/08/17 12:20:37;;;;;;;4.25;3.53;;;;;;;31.62;41.79;100106.97;6175779;28;20054;-94
2022/08/17 12:23:56;;;;;;;4.43;3.42;;;;;;;31.61;41.95;100102.69;6189038;28;20197;-93
2022/08/17 12:27:03;;;;;;;4.47;3.20;;;;;;;31.65;42.43;100099.22;6198235;28;20054;-94
2022/08/17 12:30:10;;;;;;;6.50;3.10;;;;;;;31.77;42.85;100088.97;6234818;28;20123;-95
2022/08/17 12:33:12;;;;;;;7.53;3.38;;;;;;;31.90;41.85;100082.25;6222126;28;20041;-94
2022/08/17 12:36:31;;;;;;;4.28;3.45;;;;;;;32.12;41.12;100083.78;6216162;28;20117;-94
2022/08/17 12:39:34;;;;;;;3.88;3.50;;;;;;;32.25;40.99;100080.53;6217567;28;20488;-94
2022/08/17 12:42:39;;;;;;;4.85;3.53;;;;;;;32.43;42.37;100084.44;6219637;28;20055;-94
2022/08/17 12:45:41;;;;;;;10.52;3.75;;;;;;;32.46;38.65;100088.44;6248134;28;20080;-93
2022/08/17 12:48:43;;;;;;;6.28;3.60;;;;;;;32.38;39.46;100081.78;6253395;28;20073;-93
2022/08/17 12:52:10;;;;;;;6.95;3.80;;;;;;;32.21;43.25;100081.34;6262199;28;20049;-94
2022/08/17 12:55:21;;;;;;;6.25;3.80;;;;;;;32.10;41.68;100075.22;6241257;28;20049;-93
2022/08/17 12:58:30;;;;;;;3.97;3.67;;;;;;;31.99;43.37;100069.13;6245274;28;20483;-94
2022/08/17 13:01:33;;;;;;;9.70;4.13;;;;;;;31.93;41.90;100062.97;6243836;28;20407;-95
2022/08/17 13:04:38;;;;;;;3.97;3.58;;;;;;;31.91;42.41;100061.63;6248003;28;20513;-95
2022/08/17 13:07:45;;;;;;;4.40;3.80;;;;;;;31.82;41.42;100057.91;6239614;28;20088;-94
2022/08/17 13:11:08;;;;;;;5.70;3.50;;;;;;;31.69;42.36;100064.66;6227273;28;20688;-94
2022/08/17 13:14:10;;;;;;;4.43;4.00;;;;;;;31.72;44.00;100058.75;6229493;28;20094;-94
2022/08/17 13:17:25;;;;;;;5.25;3.35;;;;;;;31.77;43.35;100056.06;6247081;28;20483;-93
2022/08/17 13:20:28;;;;;;;5.53;4.00;;;;;;;31.96;43.90;100054.41;6234333;28;20041;-94
2022/08/17 13:23:30;;;;;;;3.65;3.35;;;;;;;32.17;42.16;100048.94;6226993;28;20441;-94
2022/08/17 13:26:45;;;;;;;5.70;3.90;;;;;;;32.35;42.05;100050.97;6221556;28;20563;-94
2022/08/17 13:29:58;;;;;;;4.40;3.80;;;;;;;32.40;41.50;100044.78;6242806;28;20056;-93
2022/08/17 13:33:02;;;;;;;4.30;3.75;;;;;;;32.39;40.43;100056.56;6234342;28;20112;-93
2022/08/17 13:36:07;;;;;;;4.85;3.72;;;;;;;32.44;41.15;100043.13;6257300;28;20789;-94
2022/08/17 13:39:12;;;;;;;4.60;3.97;;;;;;;32.37;43.03;100054.19;6229212;28;20048;-94
2022/08/17 13:42:39;;;;;;;6.05;3.35;;;;;;;32.24;40.72;100046.75;6227479;28;20038;-93
2022/08/17 13:46:07;;;;;;;4.80;3.58;;;;;;;32.12;41.53;100035.56;6254103;28;20412;-94
2022/08/17 13:49:16;;;;;;;5.47;3.63;;;;;;;32.03;41.29;100038.06;6228564;28;20548;-93
2022/08/17 13:52:38;;;;;;;3.88;3.50;;;;;;;31.86;40.55;100037.56;6248375;28;20112;-94
2022/08/17 13:55:47;;;;;;;3.97;3.50;;;;;;;31.66;42.65;100033.09;6250472;28;20045;-94
2022/08/17 13:59:01;;;;;;;4.68;3.80;;;;;;;31.44;44.88;100036.91;6247692;28;20067;-94
2022/08/17 14:02:05;;;;;;;4.10;3.70;;;;;;;31.16;47.52;100032.94;6271674;28;20030;-93
2022/08/17 14:05:08;;;;;;;6.80;3.65;;;;;;;30.85;45.51;100029.47;6240440;28;20524;-93
2022/08/17 14:08:14;;;;;;;4.00;3.60;;;;;;;30.46;48.59;100028.13;6234596;28;20754;-94
2022/08/17 14:11:17;;;;;;;6.55;3.90;;;;;;;29.99;49.81;100028.25;6241261;28;20041;-94
2022/08/17 14:14:21;;;;;;;5.57;4.10;;;;;;;29.43;54.28;100042.09;6239270;28;20401;-96
2022/08/17 14:17:25;;;;;;;23.17;6.47;;;;;;;28.21;65.85;100049.81;6283337;22;20493;-91
2022/08/17 14:20:27;;;;;;;20.40;7.32;;;;;;;26.31;98.22;100046.94;6260077;28;20049;-89
2022/08/17 14:23:34;;;;;;;15.57;6.80;;;;;;;24.73;100.00;100027.50;6259101;28;20044;-90
2022/08/17 14:26:35;;;;;;;11.45;4.68;;;;;;;23.89;100.00;100038.72;6260222;28;20109;-88
2022/08/17 14:29:39;;;;;;;6.60;4.35;;;;;;;23.10;100.00;100033.16;6252156;28;20803;-89
2022/08/17 14:32:44;;;;;;;11.60;5.80;;;;;;;22.74;100.00;100047.00;6254867;28;21349;-88
2022/08/17 14:35:46;;;;;;;7.85;4.90;;;;;;;22.51;100.00;100037.00;6256292;28;20037;-89
2022/08/17 14:38:47;;;;;;;8.38;5.25;;;;;;;22.41;100.00;100034.81;6258184;28;20388;-90
2022/08/17 14:41:51;;;;;;;8.98;5.57;;;;;;;22.31;100.00;100035.25;6248070;28;20072;-90
2022/08/17 14:44:54;;;;;;;6.65;5.55;;;;;;;22.09;100.00;100024.16;6251450;28;20052;-90
2022/08/17 14:47:56;;;;;;;7.93;6.65;;;;;;;22.02;100.00;100030.47;6246878;28;20050;-91
2022/08/17 14:50:58;;;;;;;8.15;6.13;;;;;;;22.18;100.00;100037.91;6248312;28;20033;-91
2022/08/17 14:54:00;;;;;;;6.47;4.97;;;;;;;22.27;100.00;100084.16;6251007;28;20108;-91
2022/08/17 14:57:02;;;;;;;14.60;6.97;;;;;;;22.28;100.00;100114.75;6244383;28;20114;-91
2022/08/17 15:00:25;;;;;;;16.27;6.47;;;;;;;21.98;100.00;100108.34;6246640;28;20052;-91
2022/08/17 15:03:27;;;;;;;9.65;5.05;;;;;;;21.59;100.00;100104.72;6250070;28;20107;-89
2022/08/17 15:06:29;;;;;;;9.50;5.05;;;;;;;21.41;100.00;100103.53;6244624;28;20073;-91
2022/08/17 15:09:32;;;;;;;9.63;5.00;;;;;;;21.35;100.00;100112.22;6247348;28;20082;-91
2022/08/17 15:12:38;;;;;;;7.30;4.45;;;;;;;21.27;100.00;100107.97;6243522;28;20036;-90
2022/08/17 15:15:40;;;;;;;8.52;4.60;;;;;;;21.06;100.00;100103.66;6251012;28;20352;-91